Time;durP1;ratioP1;P1;durP2;ratioP2;P2;SDS_P1;SDS_P2;PMS_P1;PMS_P2;Temp;Humidity;BMP_temperature;BMP_pressure;BME280_temperature;BME280_humidity;BME280_pressure;Samples;Min_cycle;Max_cycle;Signal;HPM_P1;HPM_P2
2023/11/04 00:00:15;;;;;;;;;2.00;0.67;;;;;23.39;43.03;98680.78;4881705;29;46140;-80
2023/11/04 10:57:41;;;;;;;;;0.00;0.00;;;;;23.40;42.05;97020.78;5220510;23;46542;-79
2023/11/04 11:00:14;;;;;;;;;2.00;0.00;;;;;23.35;42.47;97026.13;4884804;29;45411;-80
2023/11/04 11:02:43;;;;;;;;;1.00;0.00;;;;;23.45;42.60;97028.69;4889562;29;45441;-83
2023/11/04 11:05:11;;;;;;;;;0.00;0.00;;;;;23.47;42.06;97033.72;4900850;28;47172;-79
2023/11/04 11:07:39;;;;;;;;;0.00;0.00;;;;;23.45;42.32;97026.03;4898230;29;45484;-77
2023/11/04 11:10:09;;;;;;;;;0.67;0.00;;;;;23.40;42.45;97004.84;4900913;28;45514;-79
2023/11/04 11:12:42;;;;;;;;;0.00;0.00;;;;;22.39;42.82;96847.13;4898145;29;45527;-76
2023/11/04 11:15:09;;;;;;;;;1.00;0.00;;;;;23.49;42.90;97021.78;4899383;28;45447;-77
2023/11/04 11:17:34;;;;;;;;;1.33;0.00;;;;;23.35;43.43;97000.41;4900660;29;45425;-78
2023/11/04 11:20:00;;;;;;;;;0.00;0.00;;;;;23.44;42.86;97000.59;4900688;29;45299;-78
2023/11/04 11:22:26;;;;;;;;;1.00;0.00;;;;;23.36;43.29;96990.59;4900777;28;45372;-78
2023/11/04 11:24:55;;;;;;;;;2.33;0.00;;;;;23.33;43.30;96975.25;4900549;28;46164;-78
2023/11/04 11:27:21;;;;;;;;;2.67;1.00;;;;;23.01;43.51;96927.88;4899863;28;45502;-79
2023/11/04 11:29:47;;;;;;;;;1.33;0.33;;;;;23.40;43.35;96986.28;4900594;28;45458;-79
2023/11/04 11:32:13;;;;;;;;;0.67;0.00;;;;;23.49;43.05;96997.91;4900564;28;45313;-79
2023/11/04 11:34:54;;;;;;;;;2.00;0.00;;;;;23.45;43.42;96972.97;4900293;28;47334;-79
2023/11/04 11:37:21;;;;;;;;;1.00;0.00;;;;;23.44;43.30;96982.03;4899388;29;45365;-79
2023/11/04 11:39:48;;;;;;;;;0.00;0.00;;;;;23.44;43.55;96976.72;4900555;28;45359;-79
2023/11/04 11:42:14;;;;;;;;;0.00;0.00;;;;;23.48;43.81;96984.88;4900103;28;45363;-79
2023/11/04 11:44:43;;;;;;;;;0.00;0.00;;;;;23.46;43.64;96981.72;4900403;28;46311;-78
2023/11/04 11:47:10;;;;;;;;;0.00;0.00;;;;;23.46;43.71;96981.72;4900280;28;45327;-78
2023/11/04 11:49:37;;;;;;;;;1.00;1.00;;;;;23.40;43.54;96981.00;4900591;28;45407;-81
2023/11/04 11:52:04;;;;;;;;;0.67;0.67;;;;;23.46;43.13;96979.06;4900455;28;45456;-79
2023/11/04 11:54:30;;;;;;;;;3.00;0.00;;;;;23.47;43.27;96972.69;4897460;29;46733;-76
2023/11/04 11:56:57;;;;;;;;;0.00;0.00;;;;;23.45;43.30;96962.34;4899583;28;45590;-76
2023/11/04 11:59:22;;;;;;;;;1.00;0.33;;;;;23.49;43.79;96954.63;4900249;28;45468;-75
2023/11/04 12:01:51;;;;;;;;;0.00;0.00;;;;;23.47;43.27;96960.19;4900095;28;45512;-77
2023/11/04 12:04:20;;;;;;;;;1.00;0.00;;;;;23.43;43.75;96953.91;4900049;28;45365;-75
2023/11/04 12:06:50;;;;;;;;;0.00;0.00;;;;;23.40;43.48;96949.97;4898917;28;45173;-79
2023/11/04 12:09:15;;;;;;;;;0.33;0.00;;;;;23.44;43.31;96952.84;4900030;28;45371;-76
2023/11/04 12:11:41;;;;;;;;;0.00;0.00;;;;;23.45;43.54;96949.09;4899729;28;45233;-76
2023/11/04 12:14:06;;;;;;;;;1.67;0.33;;;;;23.44;43.72;96960.78;4899825;28;45298;-75
2023/11/04 12:16:32;;;;;;;;;0.33;0.00;;;;;23.36;43.87;96948.16;4899883;28;45389;-75
2023/11/04 12:18:58;;;;;;;;;5.67;0.00;;;;;23.14;43.94;96905.19;4900109;28;45388;-75
2023/11/04 12:21:23;;;;;;;;;2.00;0.00;;;;;23.13;43.99;96903.63;4899862;28;45360;-76
2023/11/04 12:23:49;;;;;;;;;2.33;0.00;;;;;23.45;43.79;96941.13;4899698;28;45350;-77
2023/11/04 12:26:15;;;;;;;;;0.00;0.00;;;;;23.49;43.44;96957.28;4899433;28;45448;-77
2023/11/04 12:28:43;;;;;;;;;0.67;0.00;;;;;23.48;43.44;96964.44;4899756;28;45459;-79
2023/11/04 12:31:08;;;;;;;;;0.00;0.00;;;;;23.47;44.07;96957.56;4899680;28;45484;-78
2023/11/04 12:33:36;;;;;;;;;0.00;0.00;;;;;23.47;43.69;96948.81;4899460;28;46507;-77
2023/11/04 12:36:04;;;;;;;;;1.00;1.00;;;;;23.36;43.87;96945.50;4899467;28;45388;-76
2023/11/04 12:38:30;;;;;;;;;0.00;0.00;;;;;23.43;44.01;96953.91;4898475;29;45366;-80
2023/11/04 12:40:56;;;;;;;;;1.00;0.00;;;;;23.46;43.81;96955.19;4899119;28;45302;-81
2023/11/04 12:43:25;;;;;;;;;1.33;0.00;;;;;23.41;43.53;96953.41;4899610;28;46239;-78
2023/11/04 12:45:55;;;;;;;;;1.33;0.00;;;;;23.46;43.46;96961.28;4897218;29;45374;-75
2023/11/04 12:48:21;;;;;;;;;1.00;1.00;;;;;23.48;43.98;96969.75;4900117;28;45384;-75
2023/11/04 12:50:47;;;;;;;;;0.00;0.00;;;;;23.40;43.71;96943.84;4900158;28;45528;-76
2023/11/04 12:53:12;;;;;;;;;0.33;0.33;;;;;23.42;43.91;96935.63;4899839;28;46500;-74
2023/11/04 12:55:38;;;;;;;;;0.00;0.00;;;;;23.45;43.77;96945.66;4899629;29;45483;-76
2023/11/04 12:58:03;;;;;;;;;1.00;0.00;;;;;23.48;43.58;96943.22;4899950;28;45335;-76
2023/11/04 13:00:29;;;;;;;;;0.67;0.00;;;;;23.49;43.64;96955.47;4899690;29;45423;-75
2023/11/04 13:02:55;;;;;;;;;0.00;0.00;;;;;23.49;43.73;96936.06;4899864;29;47109;-74
2023/11/04 13:05:20;;;;;;;;;2.33;0.00;;;;;23.50;43.87;96942.97;4899822;28;45356;-74
2023/11/04 13:07:46;;;;;;;;;3.67;1.00;;;;;23.48;43.49;96937.91;4899993;28;45375;-75
2023/11/04 13:10:11;;;;;;;;;1.33;0.00;;;;;23.47;43.43;96938.22;4914330;28;45345;-74
2023/11/04 13:12:37;;;;;;;;;2.00;1.00;;;;;23.39;43.59;96940.41;4899709;28;46187;-74
2023/11/04 13:15:02;;;;;;;;;0.00;0.00;;;;;23.43;43.79;96940.63;4899902;28;45376;-74
2023/11/04 13:17:28;;;;;;;;;0.00;0.00;;;;;23.44;43.60;96957.34;4899437;28;45296;-74
2023/11/04 13:19:53;;;;;;;;;1.00;0.00;;;;;23.42;43.18;96956.84;4899599;28;45524;-75
2023/11/04 13:22:18;;;;;;;;;0.00;0.00;;;;;23.38;43.35;96938.06;4899738;28;46041;-74
2023/11/04 13:24:44;;;;;;;;;0.00;0.00;;;;;23.40;43.25;96949.16;4899461;28;45285;-75
2023/11/04 13:27:10;;;;;;;;;1.00;1.00;;;;;23.40;43.48;96957.13;4899810;28;45436;-75
2023/11/04 13:29:35;;;;;;;;;0.00;0.00;;;;;23.35;43.42;96949.22;4899379;28;47767;-74
2023/11/04 13:32:01;;;;;;;;;1.00;0.00;;;;;23.39;43.58;96964.28;4899399;29;51244;-74
2023/11/04 13:34:30;;;;;;;;;0.00;0.00;;;;;23.38;43.05;96970.69;4899651;28;45340;-74
2023/11/04 13:36:55;;;;;;;;;0.00;0.00;;;;;23.37;43.19;96970.94;4899574;28;45344;-75
2023/11/04 13:39:27;;;;;;;;;0.33;0.33;;;;;23.37;43.61;96974.38;4899266;28;45346;-74
2023/11/04 13:41:52;;;;;;;;;0.00;0.00;;;;;23.35;43.15;96981.03;4899452;28;46418;-75
2023/11/04 13:44:18;;;;;;;;;4.33;1.00;;;;;23.36;43.27;96980.78;4899356;28;45626;-75
2023/11/04 13:46:45;;;;;;;;;2.33;0.33;;;;;23.27;43.05;96969.19;4899670;28;45332;-74
2023/11/04 13:49:11;;;;;;;;;0.33;0.00;;;;;23.36;43.04;96969.38;4899677;28;45407;-75
2023/11/04 13:51:39;;;;;;;;;0.00;0.00;;;;;23.36;43.40;96988.75;4899117;28;46228;-74
2023/11/04 13:54:05;;;;;;;;;0.00;0.00;;;;;23.36;43.19;96983.44;4898910;28;45359;-75
2023/11/04 13:56:31;;;;;;;;;3.67;1.00;;;;;23.35;43.25;96989.81;4899016;28;45290;-74
2023/11/04 13:58:56;;;;;;;;;0.67;0.67;;;;;23.02;43.45;96942.72;4899139;29;45218;-74
2023/11/04 14:01:24;;;;;;;;;0.00;0.00;;;;;23.35;43.32;96996.97;4898874;28;51971;-74
2023/11/04 14:03:50;;;;;;;;;0.00;0.00;;;;;23.34;43.33;96998.06;4899212;28;45320;-75
2023/11/04 14:06:16;;;;;;;;;0.00;0.00;;;;;23.33;43.29;97001.75;4899105;28;45280;-74
2023/11/04 14:08:41;;;;;;;;;0.00;0.00;;;;;23.33;43.21;97001.75;4898894;28;45506;-74
2023/11/04 14:11:06;;;;;;;;;0.00;0.00;;;;;23.32;43.31;97006.28;4899113;28;46241;-74
2023/11/04 14:13:32;;;;;;;;;0.00;0.00;;;;;23.25;43.43;96987.25;4898955;28;45342;-74
2023/11/04 14:15:57;;;;;;;;;0.67;0.00;;;;;23.27;43.13;96991.22;4899226;28;45679;-75
2023/11/04 14:18:23;;;;;;;;;1.00;0.00;;;;;23.20;43.46;96974.06;4899116;28;45357;-75
2023/11/04 14:20:50;;;;;;;;;2.00;1.67;;;;;23.20;43.16;96971.41;4898936;28;45357;-75
2023/11/04 14:23:15;;;;;;;;;0.00;0.00;;;;;23.24;43.38;96973.22;4898657;28;45337;-75
2023/11/04 14:25:41;;;;;;;;;0.00;0.00;;;;;23.30;43.29;96984.56;4898935;28;45433;-74
2023/11/04 14:28:06;;;;;;;;;0.33;0.00;;;;;23.28;43.20;96990.16;4913491;28;45691;-75
2023/11/04 14:30:32;;;;;;;;;0.00;0.00;;;;;23.26;43.16;96988.84;4900695;28;47300;-75
2023/11/04 14:32:57;;;;;;;;;0.00;0.00;;;;;23.28;43.20;96984.06;4902199;28;45554;-74
2023/11/04 14:35:22;;;;;;;;;1.00;0.00;;;;;23.27;43.38;96988.56;4901374;29;58699;-74
2023/11/04 14:37:48;;;;;;;;;1.00;0.33;;;;;23.18;43.21;96969.84;4902056;29;45313;-75
2023/11/04 14:40:16;;;;;;;;;1.33;1.00;;;;;23.19;43.39;96962.66;4901692;28;47883;-75
2023/11/04 14:42:50;;;;;;;;;1.00;1.00;;;;;23.25;43.37;96972.16;4902134;28;45360;-74
2023/11/04 14:45:16;;;;;;;;;2.00;0.00;;;;;23.24;43.05;96981.16;4902207;28;45374;-75
2023/11/04 14:47:41;;;;;;;;;0.00;0.00;;;;;23.24;42.96;96981.16;4901920;28;45303;-75
2023/11/04 14:50:07;;;;;;;;;2.00;0.00;;;;;23.25;43.01;96976.66;4901552;28;46827;-75
2023/11/04 14:52:33;;;;;;;;;0.00;0.00;;;;;23.12;43.35;96956.91;4901820;28;45395;-74
2023/11/04 14:54:59;;;;;;;;;1.67;0.00;;;;;23.23;43.20;96971.66;4901869;28;45449;-74
2023/11/04 14:57:24;;;;;;;;;0.67;0.33;;;;;23.24;43.39;96980.38;4901610;28;45368;-74
2023/11/04 14:59:50;;;;;;;;;3.00;0.00;;;;;23.23;43.30;96986.75;4901408;28;45384;-75
2023/11/04 15:02:19;;;;;;;;;0.00;0.00;;;;;23.23;43.29;96982.25;4901751;28;45438;-74
2023/11/04 15:04:49;;;;;;;;;0.00;0.00;;;;;23.24;43.19;96986.47;4901449;28;45351;-75
2023/11/04 15:07:14;;;;;;;;;0.00;0.00;;;;;23.21;42.93;96984.41;4901646;29;45383;-75
2023/11/04 15:09:39;;;;;;;;;0.33;0.33;;;;;23.16;43.29;96965.91;4901458;28;47189;-74
2023/11/04 15:12:07;;;;;;;;;1.33;0.00;;;;;23.21;43.02;96989.72;4901573;28;45288;-74
2023/11/04 15:14:32;;;;;;;;;0.00;0.00;;;;;23.22;43.45;96996.56;4901883;28;45364;-75
2023/11/04 15:16:58;;;;;;;;;0.00;0.00;;;;;23.15;43.14;96988.16;4900319;29;45548;-75
2023/11/04 15:19:24;;;;;;;;;0.33;0.33;;;;;23.21;42.95;96997.66;4901134;28;46253;-75
2023/11/04 15:21:50;;;;;;;;;0.33;0.33;;;;;23.12;43.38;96980.78;4901403;28;45515;-74
2023/11/04 15:24:15;;;;;;;;;1.00;1.00;;;;;23.18;43.11;96996.38;4901468;28;45323;-75
2023/11/04 15:26:40;;;;;;;;;0.00;0.00;;;;;23.17;42.90;96993.97;4900239;29;45583;-75
2023/11/04 15:29:06;;;;;;;;;0.00;0.00;;;;;23.20;43.11;97004.03;4901270;28;47385;-75
2023/11/04 15:31:31;;;;;;;;;0.00;0.00;;;;;23.19;43.28;97005.09;4901358;28;45429;-74
2023/11/04 15:33:56;;;;;;;;;0.00;0.00;;;;;23.15;43.10;96988.16;4901155;28;45336;-74
2023/11/04 15:36:22;;;;;;;;;0.00;0.00;;;;;23.16;42.96;96995.84;4901336;28;45308;-75
2023/11/04 15:38:47;;;;;;;;;0.00;0.00;;;;;23.14;43.05;97000.63;4901157;28;46114;-75
2023/11/04 15:41:12;;;;;;;;;0.00;0.00;;;;;23.13;43.08;97000.94;4900905;28;45380;-75
2023/11/04 15:43:38;;;;;;;;;2.00;0.33;;;;;23.16;43.28;96989.75;4901299;28;45360;-75
2023/11/04 15:46:04;;;;;;;;;1.00;0.00;;;;;23.16;42.84;97005.66;4901158;28;45376;-75
2023/11/04 15:48:30;;;;;;;;;0.00;0.00;;;;;23.16;43.03;96995.06;4900646;28;47407;-75
2023/11/04 15:50:55;;;;;;;;;0.33;0.00;;;;;23.15;42.95;96990.81;4900848;29;45430;-75
2023/11/04 15:53:22;;;;;;;;;0.00;0.00;;;;;23.13;43.50;97004.38;4901137;29;45367;-74
2023/11/04 15:55:48;;;;;;;;;0.00;0.00;;;;;23.15;43.13;97002.22;4900849;28;45518;-75
2023/11/04 15:58:13;;;;;;;;;0.00;0.00;;;;;23.13;42.68;97004.38;4900713;28;46862;-74
2023/11/04 16:00:39;;;;;;;;;0.00;0.00;;;;;23.05;43.21;96987.22;4900710;28;45392;-75
2023/11/04 16:03:04;;;;;;;;;1.00;1.00;;;;;22.93;42.68;96974.34;4899945;28;45405;-79
2023/11/04 16:05:29;;;;;;;;;0.00;0.00;;;;;22.82;43.23;96957.75;4898804;29;45494;-80
2023/11/04 16:07:55;;;;;;;;;0.00;0.00;;;;;23.06;42.78;97007.34;4900116;28;46308;-80
2023/11/04 16:10:20;;;;;;;;;0.00;0.00;;;;;22.74;42.52;96943.25;4900012;28;45380;-79
2023/11/04 16:12:45;;;;;;;;;1.33;0.00;;;;;23.01;42.91;96982.75;4900189;28;45521;-79
2023/11/04 16:15:13;;;;;;;;;0.33;0.00;;;;;23.03;42.83;96991.22;4900035;28;45495;-78
2023/11/04 16:17:38;;;;;;;;;0.67;0.00;;;;;23.10;42.71;97002.28;4894599;28;45589;-76
2023/11/04 16:20:04;;;;;;;;;0.00;0.00;;;;;22.67;43.21;96942.75;4898903;28;45476;-75
2023/11/04 16:22:30;;;;;;;;;0.00;0.00;;;;;22.93;43.09;96984.94;4896542;28;45359;-76
2023/11/04 16:24:56;;;;;;;;;0.00;0.00;;;;;23.04;42.67;96990.94;4899880;28;45292;-75
2023/11/04 16:27:21;;;;;;;;;0.00;0.00;;;;;22.85;42.72;96965.13;4899217;28;47380;-76
2023/11/04 16:29:47;;;;;;;;;0.33;0.00;;;;;22.60;42.78;96935.16;4899242;28;45439;-77
2023/11/04 16:32:12;;;;;;;;;0.00;0.00;;;;;23.12;43.24;97010.72;4896820;28;45427;-75
2023/11/04 16:34:38;;;;;;;;;1.00;1.00;;;;;23.12;43.07;97004.63;4899650;28;45518;-76
2023/11/04 16:37:03;;;;;;;;;0.67;0.67;;;;;23.12;42.83;97013.38;4896881;28;47192;-75
2023/11/04 16:39:29;;;;;;;;;1.33;0.00;;;;;23.00;43.06;96994.44;4899509;28;45572;-76
2023/11/04 16:41:55;;;;;;;;;0.00;0.00;;;;;23.13;42.89;97008.88;4896965;28;45561;-76
2023/11/04 16:44:20;;;;;;;;;0.67;0.00;;;;;22.78;42.69;96963.88;4896746;29;45432;-76
2023/11/04 16:46:45;;;;;;;;;0.00;0.00;;;;;23.12;42.94;97007.28;4898824;29;56919;-77
2023/11/04 16:49:10;;;;;;;;;0.00;0.00;;;;;23.13;42.90;97006.22;4899534;28;45386;-80
2023/11/04 16:51:36;;;;;;;;;2.00;0.00;;;;;23.11;42.93;97000.44;4898477;29;45336;-80
2023/11/04 16:54:01;;;;;;;;;0.00;0.00;;;;;23.03;43.27;96989.34;4899077;28;45331;-81
2023/11/04 16:56:26;;;;;;;;;0.00;0.00;;;;;23.13;43.31;97017.63;4898937;28;52835;-80
2023/11/04 16:58:52;;;;;;;;;0.00;0.00;;;;;23.04;42.89;96993.59;4898266;29;45799;-80
2023/11/04 17:01:17;;;;;;;;;0.00;0.00;;;;;23.05;42.98;97010.28;4899011;28;45742;-80
2023/11/04 17:03:43;;;;;;;;;0.00;0.00;;;;;23.14;43.25;97018.41;4898209;29;45536;-80
2023/11/04 17:06:09;;;;;;;;;0.67;0.00;;;;;23.00;43.07;96981.97;4896561;29;46923;-80
2023/11/04 17:08:35;;;;;;;;;0.00;0.00;;;;;23.07;43.30;96984.28;4899114;28;45479;-78
2023/11/04 17:11:00;;;;;;;;;1.67;1.00;;;;;23.16;43.02;96987.88;4899255;28;45498;-77
2023/11/04 17:13:28;;;;;;;;;0.00;0.00;;;;;23.01;42.83;96964.97;4899112;28;45458;-76
2023/11/04 17:15:54;;;;;;;;;0.00;0.00;;;;;23.15;42.88;96983.66;4898733;28;46075;-76
2023/11/04 17:18:22;;;;;;;;;0.00;0.00;;;;;23.14;42.96;96971.47;4899048;28;45407;-75
2023/11/04 17:20:48;;;;;;;;;0.67;0.00;;;;;23.18;43.06;96984.97;4898944;28;45280;-76
2023/11/04 17:23:14;;;;;;;;;0.00;0.00;;;;;22.93;42.90;96947.81;4899035;28;45407;-75
2023/11/04 17:25:39;;;;;;;;;0.00;0.00;;;;;23.06;43.39;96964.91;4898747;28;46159;-75
2023/11/04 17:28:06;;;;;;;;;0.00;0.00;;;;;23.16;42.95;96979.91;4898973;28;45308;-74
2023/11/04 17:30:32;;;;;;;;;1.00;1.00;;;;;22.99;42.98;96956.53;4898444;29;45224;-74
2023/11/04 17:32:57;;;;;;;;;0.00;0.00;;;;;22.92;43.02;96951.56;4898862;28;45201;-74
2023/11/04 17:35:22;;;;;;;;;2.00;0.00;;;;;23.17;43.14;96970.91;4898845;28;46057;-74
2023/11/04 17:37:50;;;;;;;;;0.00;0.00;;;;;23.10;43.09;96967.00;4898776;28;45230;-73
2023/11/04 17:40:16;;;;;;;;;0.00;0.00;;;;;23.17;42.75;96984.16;4898834;28;45393;-73
2023/11/04 17:42:43;;;;;;;;;1.67;0.00;;;;;22.83;42.72;96932.03;4898571;28;45509;-73
2023/11/04 17:45:09;;;;;;;;;0.00;0.00;;;;;23.11;43.08;96977.31;4895635;29;45547;-73
2023/11/04 17:47:35;;;;;;;;;0.00;0.00;;;;;23.17;43.11;96972.75;4898666;28;45721;-72
2023/11/04 17:50:00;;;;;;;;;1.00;0.00;;;;;23.17;42.87;96978.06;4898859;28;45360;-74
2023/11/04 17:52:25;;;;;;;;;0.00;0.00;;;;;23.01;43.08;96948.28;4898576;28;45651;-73
2023/11/04 17:54:51;;;;;;;;;0.00;0.00;;;;;22.99;43.43;96943.25;4898526;28;45663;-72
2023/11/04 17:57:16;;;;;;;;;1.00;0.33;;;;;23.16;43.43;96961.38;4898521;28;46078;-73
2023/11/04 17:59:41;;;;;;;;;0.00;0.00;;;;;23.09;43.34;96950.31;4898165;28;45507;-73
2023/11/04 18:02:08;;;;;;;;;3.00;0.00;;;;;23.04;43.35;96942.41;4898632;28;45474;-75
2023/11/04 18:04:33;;;;;;;;;1.00;0.00;;;;;23.15;43.68;96954.50;4898892;28;45570;-73
2023/11/04 18:06:58;;;;;;;;;0.00;0.00;;;;;23.16;43.74;96952.63;4901624;28;45419;-72
2023/11/04 18:09:24;;;;;;;;;0.67;0.00;;;;;22.91;43.22;96918.16;4902034;28;45508;-73
2023/11/04 18:11:50;;;;;;;;;1.67;0.00;;;;;23.17;43.56;96946.25;4902328;28;45304;-74
2023/11/04 18:14:15;;;;;;;;;2.33;0.00;;;;;23.17;43.37;96948.91;4902009;28;46192;-73
2023/11/04 18:16:42;;;;;;;;;0.00;0.00;;;;;23.19;43.47;96949.41;4901791;28;45419;-74
2023/11/04 18:19:07;;;;;;;;;0.00;0.00;;;;;23.17;43.08;96938.28;4902480;28;45394;-73
2023/11/04 18:21:32;;;;;;;;;0.00;0.00;;;;;23.14;43.44;96933.56;4902072;28;45519;-73
2023/11/04 18:23:58;;;;;;;;;0.00;0.00;;;;;23.19;43.63;96928.19;4902341;28;45391;-73
2023/11/04 18:26:23;;;;;;;;;1.33;0.00;;;;;23.17;43.36;96935.66;4902350;28;45427;-73
2023/11/04 18:28:48;;;;;;;;;2.67;0.67;;;;;23.03;43.76;96912.47;4902073;28;45464;-73
2023/11/04 18:31:14;;;;;;;;;1.33;0.00;;;;;23.13;44.02;96926.69;4902306;28;45326;-73
2023/11/04 18:33:39;;;;;;;;;1.00;0.00;;;;;23.12;43.42;96920.59;4902172;28;45387;-73
2023/11/04 18:36:06;;;;;;;;;1.33;0.00;;;;;23.11;43.51;96919.00;4900756;29;45439;-73
2023/11/04 18:38:31;;;;;;;;;2.00;1.00;;;;;23.10;43.90;96916.63;4902281;28;45368;-73
2023/11/04 18:40:56;;;;;;;;;2.00;0.00;;;;;23.10;43.76;96916.63;4902196;28;45447;-73
2023/11/04 18:43:22;;;;;;;;;0.00;0.00;;;;;23.07;43.77;96916.13;4901530;28;49035;-73
2023/11/04 18:45:49;;;;;;;;;1.33;0.00;;;;;23.00;43.60;96901.66;4901890;28;45378;-73
2023/11/04 18:48:15;;;;;;;;;0.33;0.33;;;;;23.06;43.55;96906.59;4901927;28;45396;-73
2023/11/04 18:50:41;;;;;;;;;0.67;0.00;;;;;23.06;43.82;96892.56;4902086;28;45397;-73
2023/11/04 18:53:07;;;;;;;;;1.00;0.67;;;;;22.82;44.02;96862.34;4901706;28;45385;-73
2023/11/04 18:55:32;;;;;;;;;0.00;0.00;;;;;23.04;43.72;96886.75;4901496;28;45328;-73
2023/11/04 18:57:57;;;;;;;;;4.67;0.00;;;;;23.05;43.85;96889.13;4900310;29;45858;-73
2023/11/04 19:00:24;;;;;;;;;0.00;0.00;;;;;23.03;43.58;96885.19;4901621;28;45459;-73
2023/11/04 19:02:49;;;;;;;;;0.00;0.00;;;;;23.03;43.94;96890.50;4901591;28;47083;-73
2023/11/04 19:05:15;;;;;;;;;2.00;0.00;;;;;23.05;43.55;96873.22;4901581;28;45378;-73
2023/11/04 19:07:40;;;;;;;;;0.00;0.00;;;;;22.96;43.29;96859.00;4901576;28;45399;-73
2023/11/04 19:10:06;;;;;;;;;2.00;1.00;;;;;22.93;43.72;96854.25;4901688;28;45284;-73
2023/11/04 19:12:31;;;;;;;;;0.00;0.00;;;;;23.07;43.31;96857.03;4901239;28;45379;-73
2023/11/04 19:14:57;;;;;;;;;1.00;0.00;;;;;23.06;43.49;96858.88;4901262;28;45439;-73
2023/11/04 19:17:22;;;;;;;;;0.00;0.00;;;;;23.06;43.53;96872.13;4901327;28;45423;-73
2023/11/04 19:19:47;;;;;;;;;0.00;0.00;;;;;22.99;43.81;96866.41;4901486;28;45672;-73
2023/11/04 19:22:13;;;;;;;;;1.00;0.00;;;;;23.04;43.81;96858.38;4901256;28;46071;-73
2023/11/04 19:24:38;;;;;;;;;0.00;0.00;;;;;22.79;43.88;96809.13;4901448;28;45343;-73
2023/11/04 19:27:03;;;;;;;;;0.00;0.00;;;;;23.04;43.70;96846.97;4901127;28;45396;-72
2023/11/04 19:29:29;;;;;;;;;3.00;0.00;;;;;23.02;43.52;96849.13;4915914;28;45501;-73
2023/11/04 19:31:54;;;;;;;;;0.67;0.00;;;;;23.03;43.46;96840.13;4901121;28;46109;-73
2023/11/04 19:34:19;;;;;;;;;1.67;0.67;;;;;22.98;43.89;96833.00;4901221;28;45488;-73
2023/11/04 19:36:45;;;;;;;;;1.00;1.00;;;;;22.94;43.84;96826.69;4901350;28;45359;-73
2023/11/04 19:39:10;;;;;;;;;1.67;0.33;;;;;23.00;43.32;96844.13;4901197;28;45388;-73
2023/11/04 19:41:35;;;;;;;;;0.00;0.00;;;;;23.00;44.03;96835.38;4900543;28;47242;-72
2023/11/04 19:44:01;;;;;;;;;1.00;0.00;;;;;22.98;43.42;96829.59;4901206;28;45479;-73
2023/11/04 19:46:27;;;;;;;;;0.00;0.00;;;;;23.00;43.65;96832.72;4901203;28;45345;-73
2023/11/04 19:48:52;;;;;;;;;2.00;0.00;;;;;22.94;43.97;96826.69;4901080;28;45400;-73
2023/11/04 19:51:18;;;;;;;;;0.67;0.33;;;;;22.98;43.54;96819.75;4900992;28;45356;-73
2023/11/04 19:53:43;;;;;;;;;0.00;0.00;;;;;22.97;43.98;96818.19;4899640;29;45313;-73
2023/11/04 19:56:10;;;;;;;;;2.00;0.33;;;;;22.98;43.72;96813.69;4900415;28;45316;-73
2023/11/04 19:58:35;;;;;;;;;0.00;0.00;;;;;22.93;43.58;96814.50;4901042;28;45446;-72
2023/11/04 20:01:01;;;;;;;;;0.00;0.00;;;;;22.92;43.68;96808.44;4900312;28;46007;-73
2023/11/04 20:03:26;;;;;;;;;1.00;0.00;;;;;22.98;43.43;96801.19;4900932;28;45261;-73
2023/11/04 20:05:51;;;;;;;;;0.67;0.67;;;;;22.99;43.93;96799.34;4899455;29;45774;-73
2023/11/04 20:08:17;;;;;;;;;0.67;0.67;;;;;22.96;43.86;96779.50;4900962;28;45496;-73
2023/11/04 20:10:42;;;;;;;;;0.00;0.00;;;;;22.92;43.64;96779.28;4900373;28;46407;-73
2023/11/04 20:13:07;;;;;;;;;0.00;0.00;;;;;22.81;43.89;96769.88;4900726;28;45258;-73
2023/11/04 20:15:33;;;;;;;;;0.00;0.00;;;;;22.92;43.61;96791.75;4900764;28;45388;-72
2023/11/04 20:17:58;;;;;;;;;0.33;0.00;;;;;22.99;43.40;96786.88;4900765;28;45558;-73
2023/11/04 20:20:24;;;;;;;;;0.00;0.00;;;;;22.99;43.33;96792.19;4900448;28;46095;-73
2023/11/04 20:22:50;;;;;;;;;2.33;0.00;;;;;22.92;43.76;96762.59;4900532;28;45449;-73
2023/11/04 20:25:17;;;;;;;;;0.00;0.00;;;;;22.96;43.91;96768.88;4900222;28;45369;-72
2023/11/04 20:27:42;;;;;;;;;1.00;0.33;;;;;23.00;43.58;96772.56;4899552;28;45553;-73
2023/11/04 20:30:08;;;;;;;;;0.00;0.00;;;;;23.00;43.18;96769.13;4900867;28;46463;-72
2023/11/04 20:32:34;;;;;;;;;0.00;0.00;;;;;22.95;43.75;96757.50;4900442;28;45399;-72
2023/11/04 20:34:59;;;;;;;;;2.00;0.00;;;;;23.01;43.55;96768.81;4900373;28;45335;-72
2023/11/04 20:37:26;;;;;;;;;0.00;0.00;;;;;23.00;43.35;96766.47;4900581;28;45365;-73
2023/11/04 20:39:52;;;;;;;;;1.00;0.00;;;;;22.91;43.57;96751.19;4899932;28;46362;-73
2023/11/04 20:42:17;;;;;;;;;2.00;0.00;;;;;22.94;43.47;96753.28;4900091;28;45376;-73
2023/11/04 20:44:43;;;;;;;;;0.00;0.00;;;;;22.97;43.27;96754.56;4900453;28;45325;-73
2023/11/04 20:47:09;;;;;;;;;0.00;0.00;;;;;22.93;43.11;96749.03;4900271;28;45446;-73
2023/11/04 20:49:34;;;;;;;;;2.00;0.00;;;;;22.97;43.54;96751.91;4900065;28;46195;-73
2023/11/04 20:51:59;;;;;;;;;0.33;0.00;;;;;22.71;43.81;96712.50;4900090;28;45367;-72
2023/11/04 20:54:24;;;;;;;;;0.00;0.00;;;;;22.96;43.65;96756.44;4899944;28;45458;-73
2023/11/04 20:56:50;;;;;;;;;2.00;0.00;;;;;22.96;43.49;96755.63;4899933;28;45347;-72
2023/11/04 20:59:16;;;;;;;;;0.33;0.00;;;;;22.85;43.71;96742.53;4899787;28;46022;-73
2023/11/04 21:01:42;;;;;;;;;1.33;0.00;;;;;22.83;43.81;96727.97;4899944;28;45363;-73
2023/11/04 21:04:08;;;;;;;;;0.67;0.67;;;;;22.95;43.53;96740.81;4900001;28;45406;-73
2023/11/04 21:06:34;;;;;;;;;0.67;0.67;;;;;22.93;43.67;96742.94;4899854;28;45432;-73
2023/11/04 21:08:59;;;;;;;;;0.00;0.00;;;;;22.94;43.43;96745.31;4899499;28;46379;-73
2023/11/04 21:11:25;;;;;;;;;0.00;0.00;;;;;22.92;43.70;96733.44;4899743;28;45388;-73
2023/11/04 21:13:50;;;;;;;;;0.00;0.00;;;;;22.96;43.20;96737.09;4900021;28;45475;-73
2023/11/04 21:16:16;;;;;;;;;2.00;0.00;;;;;22.92;43.29;96730.78;4899868;28;45319;-72
2023/11/04 21:18:45;;;;;;;;;0.00;0.00;;;;;22.86;43.40;96724.75;4899419;28;46158;-73
2023/11/04 21:21:14;;;;;;;;;0.00;0.00;;;;;22.93;43.87;96727.84;4899743;28;45356;-72
2023/11/04 21:23:40;;;;;;;;;0.00;0.00;;;;;22.95;43.43;96722.28;4899389;29;45506;-73
2023/11/04 21:26:05;;;;;;;;;0.00;0.00;;;;;22.93;43.65;96717.25;4914193;28;45431;-73
2023/11/04 21:28:31;;;;;;;;;1.33;0.00;;;;;22.95;43.19;96714.31;4899557;28;46069;-72
2023/11/04 21:30:57;;;;;;;;;2.00;0.00;;;;;22.82;43.64;96694.63;4899425;29;45448;-73
2023/11/04 21:33:23;;;;;;;;;3.00;1.00;;;;;22.94;43.17;96712.72;4914241;28;45423;-73
2023/11/04 21:35:50;;;;;;;;;0.00;0.00;;;;;22.90;43.27;96703.78;4899618;28;45639;-72
2023/11/04 21:38:15;;;;;;;;;2.00;0.00;;;;;22.87;43.53;96702.50;4898722;28;46130;-73
2023/11/04 21:40:41;;;;;;;;;0.00;0.00;;;;;22.93;43.60;96695.25;4899301;28;45471;-72
2023/11/04 21:43:06;;;;;;;;;0.67;0.00;;;;;22.84;43.71;96681.88;4899337;28;45336;-73
2023/11/04 21:45:32;;;;;;;;;0.00;0.00;;;;;22.93;43.78;96689.94;4899269;28;45348;-73
2023/11/04 21:47:57;;;;;;;;;2.00;1.00;;;;;22.92;43.48;96691.81;4899256;28;46232;-73
2023/11/04 21:50:23;;;;;;;;;1.00;1.00;;;;;22.92;43.23;96688.38;4899028;28;45402;-73
2023/11/04 21:52:49;;;;;;;;;1.00;0.00;;;;;22.89;43.65;96683.66;4899484;28;45376;-73
2023/11/04 21:55:14;;;;;;;;;1.00;0.00;;;;;22.80;43.44;96670.25;4899334;28;45364;-73
2023/11/04 21:57:39;;;;;;;;;0.00;0.00;;;;;22.88;43.46;96676.75;4897736;29;47339;-72
2023/11/04 22:00:05;;;;;;;;;0.00;0.00;;;;;22.91;43.63;96681.50;4899009;28;45378;-73
2023/11/04 22:02:31;;;;;;;;;0.00;0.00;;;;;22.91;43.56;96682.28;4899004;28;45313;-73
2023/11/04 22:04:56;;;;;;;;;0.00;0.00;;;;;22.90;43.65;96682.59;4898751;28;45479;-73
2023/11/04 22:07:21;;;;;;;;;0.67;0.00;;;;;22.91;43.41;96684.16;4898899;29;50297;-73
2023/11/04 22:09:47;;;;;;;;;1.00;0.67;;;;;22.83;43.07;96665.19;4899112;28;45429;-73
2023/11/04 22:12:12;;;;;;;;;3.00;0.00;;;;;22.83;43.15;96672.34;4899197;28;45271;-72
2023/11/04 22:14:37;;;;;;;;;2.00;0.67;;;;;22.88;43.27;96671.47;4899297;28;45233;-72
2023/11/04 22:17:03;;;;;;;;;0.00;0.00;;;;;22.84;43.14;96668.63;4898836;28;45335;-73
2023/11/04 22:19:28;;;;;;;;;2.00;0.33;;;;;22.89;43.62;96671.19;4898708;28;45598;-73
2023/11/04 22:21:55;;;;;;;;;0.00;0.00;;;;;22.87;43.15;96668.06;4899010;28;45359;-72